• Join FlightAware (Why Join?)
  • Login
  • US Flag 
08:13AM EDT


 

Airport Tracker/Info


-or-


 

Live Flight TrackerFlight Track Log ✈ ASQ5745 ✈ 24-May-2013 ✈ KIAD - KALB

Flight Track Log - Related Links

Times and Time Zones

All times are in EDT time to prevent confusion due to time zone crossing. See the ASQ5745 flight status page for this flight to view local times or setup timezone preferences in your user account.

Time Position Orientation Groundspeed Altitude Reporting Facility
EDT Latitude Longitude Course Direction KTS MPH feet Rate Location/Type
08:51AM 38.9667 -77.4333 North 158 182 1,800  Level Potomac TRACON
08:52AM 39.0333 -77.4333 360° North 225 259 3,000 1,740 Climbing Potomac TRACON
08:54AM 39.2361 -77.4500 North  Level FlightAware Approximate
08:55AM 39.3370 -77.4500 North  Level FlightAware Approximate
08:55AM 39.1658 -77.4603 351° North 254 292 7,200  Level Washington Center
08:56AM 39.4379 -77.4500 North  Level FlightAware Approximate
08:56AM 39.2469 -77.4703 355° North 266 306 9,700  Level Washington Center
08:57AM 39.5388 -77.4500 North  Level FlightAware Approximate
08:57AM 39.3300 -77.4750 357° North 278 320 11,800  Level Washington Center
08:58AM 39.4200 -77.4667 North 300 345 13,500 1,500 Climbing Washington Center
08:59AM 39.5053 -77.4636 North 328 377 14,900 1,200 Climbing Washington Center
09:01AM 39.7072 -77.4528 North 366 421 17,200 1,080 Climbing New York Center
09:02AM 39.8283 -77.4508 North 386 444 18,200 900 Climbing New York Center
09:03AM 39.9347 -77.4503 360° North 410 472 19,100 780 Climbing New York Center
09:04AM 40.0519 -77.4450 North 416 479 19,800 660 Climbing New York Center
09:05AM 40.1736 -77.4322 North 427 491 20,400 720 Climbing New York Center
09:06AM 40.2786 -77.3417 33° Northeast 422 486 21,300 960 Climbing New York Center
09:07AM 40.3911 -77.2325 36° Northeast 461 531 22,400 960 Climbing New York Center
09:08AM 40.5000 -77.1444 32° Northeast 456 525 23,300 840 Climbing New York Center
09:09AM 40.6206 -77.0736 24° Northeast 461 531 24,100 780 Climbing New York Center
09:10AM 40.7389 -77.0050 24° Northeast 461 531 24,900 660 Climbing New York Center
09:11AM 40.8592 -76.9336 24° Northeast 461 531 25,500 540 Climbing New York Center
09:12AM 40.9647 -76.8689 25° Northeast 466 536 26,000 540 Climbing New York Center
09:13AM 41.0872 -76.7944 25° Northeast 466 536 26,600 600 Climbing New York Center
09:14AM 41.2097 -76.7228 24° Northeast 471 542 27,200 540 Climbing New York Center
09:15AM 41.3342 -76.6508 23° Northeast 471 542 27,700 480 Climbing New York Center
09:16AM 41.4589 -76.5731 25° Northeast 471 542 28,200 480 Climbing New York Center
09:17AM 41.5833 -76.4950 25° Northeast 476 548 28,700 360 Climbing New York Center
09:18AM 41.7100 -76.4169 25° Northeast 481 554 29,000 120 Climbing New York Center
09:19AM 41.8367 -76.3386 25° Northeast 486 559 29,000 -240 Level New York Center
09:20AM 41.9672 -76.2575 25° Northeast 497 572 28,600 -1,920 Descending New York Center
09:21AM 42.1089 -76.1686 25° Northeast 502 578 25,200 -1,500 Descending New York Center
09:23AM 42.2594 -75.8517 57° Northeast 472 543 24,000 -420 Descending Boston Center
09:24AM 42.3119 -75.6944 66° East 459 528 24,000  Level Boston Center
09:25AM 42.3664 -75.5397 64° Northeast 459 528 24,000 -720 Level Boston Center
09:26AM 42.4322 -75.3406 66° East 464 534 22,500 -1,740 Descending Boston Center
09:27AM 42.4822 -75.1739 68° East 475 547 20,200 -2,340 Descending Boston Center
09:28AM 42.4983 -75.0111 82° East 440 506 17,900 -2,340 Descending Boston Center
09:29AM 42.4975 -74.8675 90° East 415 478 15,600 -2,340 Descending Boston Center
09:30AM 42.4925 -74.7069 92° East 394 453 13,500 -2,040 Descending Boston Center
09:31AM 42.4911 -74.5547 91° East 404 465 11,700 -1,380 Descending Boston Center
09:32AM 42.5019 -74.4256 83° East 378 435 10,700 -1,260 Descending Boston Center
09:33AM 42.5125 -74.2961 84° East 321 369 9,100 -1,680 Descending Boston Center
09:34AM 42.5222 -74.2036 82° East 286 329 7,400 -1,800 Descending Boston Center
09:35AM 42.5322 -74.0883 83° East 280 322 5,500 -1,620 Descending Boston Center
09:36AM 42.5378 -73.9842 86° East 264 304 4,000 -1,200 Descending Boston Center
09:37AM 42.5453 -73.9028 83° East 245 282 3,100 -720 Descending Boston Center
09:38AM 42.5628 -73.8269 73° East 195 224 2,700 -420 Descending Boston Center